Bismarck, North Dakota
Current Conditions -  °F | °C
As of 12:52 PM on Friday 24 Oct 2014 (Local Time) from KBIS Reporting Station
Clear Clear  
Wind Chill: 70°   Ceiling: Unl
Heat Index: 70°   Visibility: 10mi
Dew Point: 40°   Wind: 14mph
Humidity: 33%   Direction: 310°NW
Pressure: 29.91"   Gusts: 22mph
Location:  46.81°N, 100.77°W
Report Text: KBIS 241752Z 31012G19KT 10SM CLR 21/04 A2991 RMK AO2 SLP129 T02110044 10211 20028 51012
Loading
Personal Weather Stations






























Interactive Weather Map
Tropical Storm Tracking
New forecast layout! Learn more

10-Day Weather Forecast

Advertisements
Track Severe Weather on mobile